Accueil
METAR-TAF:

METAR-TAF

Aéroports :

Aéroport international Philip S. W. Goldson

Belize City, Belize

latitude: 17-32N, longitude: 088-18W, altitude: 5 m

Observation

Le bulletin a été fait il y a 52 minutes, à 00:00 UTC
Vent 2 kt de sud-est
Température 28°C
Humidité 79%
Pression 1011 hPa
Visibilité 10 km ou plus
Quelques nuages à une hauteur de 2200 ft

METAR: MZBZ 120000Z 14002KT 9999 FEW022 28/24 A2987 Q1011 NOSIG

Heure: 18:52 (00:52 UTC)

Prévision

Le bulletin a été fait il y a 3 heures et 27 minutes, à 21:25 UTC
Prévision valable du 12 à 00 UTC au 12 à 24 UTC
Vent 3 kt de direction variable
Visibilité 10 km ou plus
Nuages épars à une hauteur de 2200 ft
Evoluant progressivement
du 12 à 08 UTC au 12 à 10 UTC
Vent 5 kt de nord-ouest
Temporairement
du 12 à 09 UTC au 12 à 15 UTC
Nuages fragmentés à une hauteur de 400 ft

TAF: MZBZ 112125Z 1200/1224 VRB03KT 9999 SCT022 BECMG 1208/1210 31005KT TEMPO 1209/1215 BKN004

Observations et prévisions météorologiques de plus de 4000 aéroports (messages METAR et TAF).

Les stations disponibles sont représentées par des disques jaunes et rouges sur la carte.

Passer la souris dessus pour voir le nom de la station.

Cliquer dessus pour voir les observations et prévisions météorologiques.

Pour changer de carte: cliquez sur les boutons verts avec une croix noire pour zoomer, sur le bouton vert avec un tiret pour effectuer un zoom arrière, ou sur les flèches vertes pour les cartes adjacentes.


METAR-TAF: